| time (UTC) | temp F | wind direction | speed MPH | gust MPH | rain 1hr in | rain 24hr in | rain mn in | humidity % | barometer mb |
| 20260505230025 | 50 | 0.0 | 0.0 | 0.04 | 0.38 | 0.38 | 92 | 1006.3 | |
| 20260505224523 | 50 | 0.0 | 0.0 | 0.07 | 0.38 | 0.38 | 91 | 1006.3 | |
| 20260505223023 | 50 | 0.0 | 0.0 | 0.09 | 0.37 | 0.37 | 92 | 1006.2 | |
| 20260505221523 | 51 | 0.0 | 0.0 | 0.13 | 0.36 | 0.36 | 91 | 1006.3 | |
| 20260505220020 | 51 | 0.0 | 0.0 | 0.14 | 0.34 | 0.34 | 91 | 1006.3 | |
| 20260505214534 | 51 | 0.0 | 0.0 | 0.12 | 0.31 | 0.31 | 91 | 1006.2 | |
| 20260505213017 | 51 | 0.0 | 0.0 | 0.10 | 0.27 | 0.27 | 91 | 1005.9 | |
| 20260505211517 | 51 | 0.0 | 0.0 | 0.07 | 0.23 | 0.23 | 91 | 1006.0 | |
| 20260505210015 | 51 | 0.0 | 0.0 | 0.04 | 0.20 | 0.20 | 90 | 1005.8 | |
| 20260505204513 | 51 | 0.0 | 0.0 | 0.03 | 0.18 | 0.18 | 89 | 1005.9 | |
| 20260505203017 | 52 | 0.0 | 0.0 | 0.03 | 0.17 | 0.17 | 88 | 1005.7 | |
| 20260505201510 | 52 | 0.0 | 0.0 | 0.04 | 0.16 | 0.16 | 88 | 1005.9 | |
| 20260505200007 | 52 | 0.0 | 0.0 | 0.06 | 0.16 | 0.16 | 90 | 1006.1 | |
| 20260505194506 | 53 | 0.0 | 0.0 | 0.07 | 0.15 | 0.15 | 90 | 1006.5 | |
| 20260505193002 | 54 | 0.0 | 0.0 | 0.07 | 0.13 | 0.13 | 89 | 1006.5 | |
| 20260505191600 | 55 | 0.0 | 0.0 | 0.07 | 0.12 | 0.12 | 90 | 1006.4 | |
| 20260505190055 | 56 | 0.0 | 0.0 | 0.07 | 0.10 | 0.10 | 90 | 1005.9 | |
| 20260505184555 | 56 | 0.0 | 0.0 | 0.07 | 0.08 | 0.08 | 89 | 1005.9 | |
| 20260505183054 | 56 | 0.0 | 0.0 | 0.06 | 0.06 | 0.06 | 88 | 1005.8 | |
| 20260505181551 | 57 | 0.0 | 0.0 | 0.04 | 0.04 | 0.04 | 86 | 1005.5 | |
| 20260505180104 | 58 | 0.0 | 0.0 | 0.03 | 0.03 | 0.03 | 84 | 1005.7 | |
| 20260505174558 | 59 | 0.0 | 0.0 | 0.01 | 0.01 | 0.01 | 81 | 1005.5 | |
| 20260505173046 | 60 | 0.0 | 0.0 | 0.00 | 0.00 | 0.00 | 76 | 1005.5 | |
| 20260505171542 | 61 | 0.0 | 0.0 | 0.00 | 0.00 | 0.00 | 76 | 1005.5 | |
| 20260505170041 | 60 | 0.0 | 0.0 | 0.00 | 0.00 | 0.00 | 76 | 1005.6 | |
| 20260505164540 | 61 | 0.0 | 0.0 | 0.00 | 0.00 | 0.00 | 74 | 1005.6 | |
| 20260505163039 | 61 | 0.0 | 0.0 | 0.00 | 0.00 | 0.00 | 73 | 1005.5 | |
| 20260505161539 | 62 | 0.0 | 0.0 | 0.00 | 0.00 | 0.00 | 72 | 1005.5 | |
| 20260505153040 | 62 | 0.0 | 0.0 | 0.00 | 0.00 | 0.00 | 72 | 1005.4 | |
| 20260505151536 | 62 | 0.0 | 0.0 | 0.00 | 0.00 | 0.00 | 71 | 1005.3 | |
| 20260505124529 | 62 | 0.0 | 0.0 | 0.00 | 0.00 | 0.00 | 70 | 1003.4 | |
| 20260505123025 | 61 | 0.0 | 0.0 | 0.00 | 0.00 | 0.00 | 71 | 1003.3 | |
| 20260505121524 | 61 | 0.0 | 0.0 | 0.00 | 0.00 | 0.00 | 71 | 1003.4 | |
| 20260505120021 | 60 | 0.0 | 0.0 | 0.00 | 0.00 | 0.00 | 71 | 1002.9 | |
| 20260505114519 | 60 | 0.0 | 0.0 | 0.00 | 0.00 | 0.00 | 71 | 1002.8 | |
| 20260505113019 | 60 | 0.0 | 0.0 | 0.00 | 0.00 | 0.00 | 72 | 1002.3 | |
| 20260505111514 | 60 | 0.0 | 0.0 | 0.00 | 0.00 | 0.00 | 73 | 1001.9 | |
| 20260505101512 | 60 | 0.0 | 0.0 | 0.00 | 0.00 | 0.00 | 73 | 1001.4 | |
| 20260505100012 | 60 | 0.0 | 0.0 | 0.00 | 0.00 | 0.00 | 73 | 1001.4 | |
| 20260505094504 | 60 | 0.0 | 0.0 | 0.00 | 0.00 | 0.00 | 73 | 1001.4 | |
| 20260505093006 | 61 | 0.0 | 0.0 | 0.00 | 0.00 | 0.00 | 71 | 1001.3 | |
| 20260505091616 | 61 | 0.0 | 0.0 | 0.00 | 0.00 | 0.00 | 70 | 1001.1 | |
| 20260505090057 | 62 | 0.0 | 0.0 | 0.00 | 0.00 | 0.00 | 68 | 1000.9 | |
| 20260505084556 | 63 | 0.0 | 0.0 | 0.00 | 0.00 | 0.00 | 66 | 1000.8 | |
| 20260505083100 | 64 | 0.0 | 0.0 | 0.00 | 0.00 | 0.00 | 65 | 1000.7 | |
| 20260505081601 | 64 | 0.0 | 0.0 | 0.00 | 0.00 | 0.00 | 65 | 1000.6 | |
| 20260505080107 | 63 | 0.0 | 0.0 | 0.00 | 0.00 | 0.00 | 69 | 1000.3 | |
| 20260505074552 | 63 | 0.0 | 0.0 | 0.00 | 0.00 | 0.00 | 69 | 1000.1 | |
| 20260505073050 | 63 | 0.0 | 0.0 | 0.00 | 0.00 | 0.00 | 67 | 1000.1 | |
| 20260505071556 | 64 | 0.0 | 0.0 | 0.00 | 0.00 | 0.00 | 66 | 1000.2 | |
| 20260505070048 | 65 | 0.0 | 0.0 | 0.00 | 0.00 | 0.00 | 64 | 1000.4 | |
| 20260505064541 | 66 | 0.0 | 0.0 | 0.00 | 0.00 | 0.00 | 63 | 1000.6 | |
| 20260505063048 | 67 | 0.0 | 0.0 | 0.00 | 0.00 | 0.00 | 61 | 1000.7 | |
| 20260505061604 | 67 | 0.0 | 0.0 | 0.00 | 0.00 | 0.00 | 60 | 1001.0 | |
| 20260505060037 | 67 | 0.0 | 0.0 | 0.00 | 0.00 | 0.00 | 60 | 1000.9 | |
| 20260505054536 | 67 | 0.0 | 0.0 | 0.00 | 0.00 | 0.00 | 61 | 1000.3 | |
| 20260505053041 | 67 | 0.0 | 0.0 | 0.00 | 0.00 | 0.00 | 61 | 1000.1 | |
| 20260505051555 | 67 | 0.0 | 0.0 | 0.00 | 0.00 | 0.00 | 60 | 1000.0 | |
| 20260505041532 | 68 | 0.0 | 0.0 | 0.00 | 0.00 | 0.00 | 59 | 1000.5 | |
| 20260505040027 | 67 | 0.0 | 0.0 | 0.00 | 0.00 | 0.00 | 60 | 1000.5 | |
| 20260505034529 | 67 | 0.0 | 0.0 | 0.00 | 0.00 | 0.00 | 61 | 1000.7 | |
| 20260505033029 | 67 | 0.0 | 0.0 | 0.00 | 0.00 | 0.00 | 60 | 1000.8 | |
| 20260505031525 | 66 | 0.0 | 0.0 | 0.00 | 0.00 | 0.00 | 61 | 1001.1 | |
| 20260505030027 | 66 | 0.0 | 0.0 | 0.00 | 0.00 | 0.00 | 61 | 1001.1 | |
| 20260505024524 | 67 | 0.0 | 0.0 | 0.00 | 0.00 | 0.00 | 59 | 1001.1 | |
| 20260505023024 | 68 | 0.0 | 0.0 | 0.00 | 0.00 | 0.00 | 57 | 1001.1 | |
| 20260505021524 | 68 | 0.0 | 0.0 | 0.00 | 0.00 | 0.00 | 56 | 1001.1 | |
| 20260505020023 | 69 | 0.0 | 0.0 | 0.00 | 0.00 | 0.00 | 54 | 1001.1 | |
| 20260505014523 | 69 | 0.0 | 0.0 | 0.00 | 0.00 | 0.00 | 53 | 1001.1 | |
| 20260505013022 | 70 | 0.0 | 0.0 | 0.00 | 0.00 | 0.00 | 50 | 1001.0 | |
| 20260505011522 | 71 | 0.0 | 0.0 | 0.00 | 0.00 | 0.00 | 48 | 1000.7 | |
| 20260505010021 | 70 | 0.0 | 0.0 | 0.00 | 0.00 | 0.00 | 48 | 1000.5 | |
| 20260505004521 | 71 | 0.0 | 0.0 | 0.00 | 0.00 | 0.00 | 48 | 1000.4 | |
| 20260505003023 | 71 | 0.0 | 0.0 | 0.00 | 0.00 | 0.00 | 48 | 1000.2 | |
| 20260505001520 | 72 | 0.0 | 0.0 | 0.00 | 0.00 | 0.00 | 46 | 1000.2 | |
| 20260505000019 | 73 | 0.0 | 0.0 | 0.00 | 0.00 | 0.00 | 44 | 1000.2 | |
| 20260504234522 | 74 | 0.0 | 0.0 | 0.00 | 0.00 | 0.00 | 44 | 1000.2 | |
| 20260504233019 | 74 | 0.0 | 0.0 | 0.00 | 0.00 | 0.00 | 44 | 1000.0 | |
| 20260504231518 | 75 | 0.0 | 0.0 | 0.00 | 0.00 | 0.00 | 44 | 999.9 |